• Join FlightAware (Why Join?)
  • Login
  • US Flag 
12:11PM EDT


 

Airport Tracker/Info


-or-


 

Live Flight TrackerFlight Track Log ✈ SWA1496 ✈ 06-Jul-2013 ✈ KLAX - KSMF

Flight Track Log - Related Links

Times and Time Zones

All times are in EDT time to prevent confusion due to time zone crossing. See the SWA1496 flight status page for this flight to view local times or setup timezone preferences in your user account.

Time Position Orientation Groundspeed Altitude Reporting Facility
EDT Latitude Longitude Course Direction KTS MPH feet Rate Location/Type
10:24PM 33.9422 -118.5367 269° West 228 262 4,400  Level Los Angeles Center
10:25PM 33.9811 -118.6225 299° West 272 313 7,000 1,620 Climbing Los Angeles Center
10:26PM 34.0311 -118.6911 311° West 277 319 7,800 960 Climbing Los Angeles Center
10:27PM 34.1056 -118.6600 19° North 289 333 9,000 1,020 Climbing Los Angeles Center
10:28PM 34.1839 -118.6556 North 293 337 9,900 1,800 Climbing Los Angeles Center
10:29PM 34.2658 -118.6722 350° North 295 339 12,700 2,460 Climbing Los Angeles Center
10:30PM 34.3614 -118.6911 351° North 337 388 15,000 2,400 Climbing Los Angeles Center
10:31PM 34.4647 -118.7119 351° North 372 428 17,700 2,460 Climbing Los Angeles Center
10:32PM 34.5706 -118.7428 347° North 392 451 20,100 2,700 Climbing Los Angeles Center
10:33PM 34.6711 -118.7975 336° Northwest 394 453 23,200 2,460 Climbing Los Angeles Center
10:34PM 34.7750 -118.8481 338° Northwest 401 461 25,200 2,040 Climbing Los Angeles Center
10:35PM 34.9017 -118.9064 339° North 416 479 27,500 1,860 Climbing Los Angeles Center
10:36PM 35.0144 -118.9561 340° North 429 494 29,100 1,560 Climbing Los Angeles Center
10:37PM 35.1306 -119.0067 340° North 439 505 30,800 1,560 Climbing Los Angeles Center
10:38PM 35.2478 -119.0597 340° North 445 512 32,300 1,560 Climbing Los Angeles Center
10:39PM 35.3667 -119.1125 340° North 450 518 34,000 1,740 Climbing Los Angeles Center
10:40PM 35.4831 -119.1656 340° North 451 519 35,900 960 Climbing Los Angeles Center
10:41PM 35.5981 -119.2186 339° North 448 516 36,000  Climbing Los Angeles Center
10:42PM 35.7408 -119.2850 339° North 453 521 35,900 -60 Descending Los Angeles Center
10:43PM 35.8567 -119.3378 340° North 449 517 35,900  Level Los Angeles Center
10:44PM 35.9714 -119.3894 340° North 451 519 35,900  Level Oakland Center
10:46PM 36.0853 -119.4439 339° North 444 511 35,900  Level Oakland Center
10:47PM 36.1933 -119.5153 332° Northwest 441 507 35,900  Level Oakland Center
10:48PM 36.2997 -119.5872 331° Northwest 439 505 35,900  Level Oakland Center
10:49PM 36.4072 -119.6581 332° Northwest 437 503 35,900  Level Oakland Center
10:50PM 36.5158 -119.7297 332° Northwest 441 507 35,900  Level Oakland Center
10:51PM 36.6244 -119.8050 331° Northwest 446 513 35,900  Level Oakland Center
10:52PM 36.7347 -119.8786 332° Northwest 449 517 35,900  Level Oakland Center
10:53PM 36.8425 -119.9508 332° Northwest 441 507 35,900 -600 Level Oakland Center
10:54PM 36.9722 -120.0389 332° Northwest 442 509 34,700 -2,160 Descending Oakland Center
10:55PM 37.0828 -120.1156 331° Northwest 453 521 31,600 -2,760 Descending Oakland Center
10:56PM 37.1897 -120.1889 331° Northwest 448 516 29,200 -2,280 Descending Oakland Center
10:57PM 37.2908 -120.2586 331° Northwest 424 488 27,100 -2,160 Descending Oakland Center
10:58PM 37.3853 -120.3275 330° Northwest 401 461 24,900 -2,100 Descending Oakland Center
10:59PM 37.4667 -120.4000 325° Northwest 378 435 23,300 -1,380 Descending Northern Cal TRACON
11:00PM 37.5500 -120.4667 328° Northwest 388 447 22,400 -900 Descending Northern Cal TRACON
11:01PM 37.6333 -120.5500 322° Northwest 379 436 21,500 -1,020 Descending Northern Cal TRACON
11:02PM 37.7167 -120.6333 322° Northwest 372 428 20,400 -960 Descending Northern Cal TRACON
11:03PM 37.8000 -120.7333 317° Northwest 367 422 19,500 -780 Descending Northern Cal TRACON
11:04PM 37.8833 -120.8167 322° Northwest 371 427 18,800 -960 Descending Northern Cal TRACON
11:05PM 37.9667 -120.8833 328° Northwest 366 421 17,600 -1,140 Descending Northern Cal TRACON
11:06PM 38.0333 -120.9667 315° West 352 405 16,600 -1,020 Descending Northern Cal TRACON
11:07PM 38.1000 -121.0500 315° West 335 386 15,600 -1,020 Descending Northern Cal TRACON
11:08PM 38.1667 -121.1500 310° West 339 390 14,600 -1,500 Descending Northern Cal TRACON
11:09PM 38.2333 -121.2333 316° Northwest 337 388 12,700 -2,100 Descending Northern Cal TRACON
11:10PM 38.2833 -121.3167 307° West 336 387 10,500 -1,380 Descending Northern Cal TRACON
11:11PM 38.3500 -121.4000 316° Northwest 317 365 10,000 -360 Descending Northern Cal TRACON
11:12PM 38.4000 -121.5000 303° West 321 369 9,800 -1,140 Descending Northern Cal TRACON
11:14PM 38.5564 -121.6375 326° Northwest 296 341 6,400 -1,680 Descending Oakland Center
11:15PM 38.6250 -121.6897 329° Northwest 287 330 4,400 -1,740 Descending Oakland Center
11:16PM 38.7019 -121.7003 354° North 279 321 3,000 -720 Descending Oakland Center
11:17PM 38.7697 -121.7089 354° North 250 288 3,000 -420 Level Oakland Center
11:18PM 38.8000 -121.6547 54° Northeast 231 266 2,200 -840 Descending Oakland Center
11:19PM 38.7833 -121.6167 119° Southeast 197 227 1,600 -900 Descending Northern Cal TRACON
11:20PM 38.7500 -121.6000 159° South 133 153 800 -720 Descending Northern Cal TRACON
11:21PM 38.7167 -121.6000 180° South 123 142 300 -600 Descending Northern Cal TRACON